Terminal Aerodrome Forecast
Issued by NWS

Home | Current Version | Previous Version | Graphics & Text | Print | Product List | Glossary On
Versions: 1 2 3 4 5 6 7 8 9 10 11 12 13 14 15 16 17 18
000
FTUS43 KICT 271120
TAFHUT
TAF
KHUT 271120Z 2712/2812 17008KT P6SM FEW100 BKN200
     FM271600 18015G23KT P6SM FEW040 BKN200
     FM280500 19012KT P6SM VCTS SCT040CB BKN100=

USA.gov is the U.S. government's official web portal to all federal, state and local government web resources and services.